createdAt,value
2022-10-29T00:02:06.116Z,23.35
2022-10-29T00:04:32.818Z,20.10
2022-10-29T00:06:59.540Z,23.27
2022-10-29T00:09:26.094Z,19.58
2022-10-29T00:11:52.750Z,16.73
2022-10-29T00:14:19.376Z,17.58
2022-10-29T00:16:45.913Z,13.82
2022-10-29T00:19:12.470Z,17.23
2022-10-29T00:21:40.457Z,19.65
2022-10-29T00:24:09.897Z,19.35
2022-10-29T00:26:36.539Z,12.30
2022-10-29T00:29:03.127Z,17.45
2022-10-29T00:31:31.028Z,15.60
2022-10-29T00:33:57.863Z,15.30
2022-10-29T00:36:27.049Z,11.88
2022-10-29T00:38:54.167Z,18.85
2022-10-29T00:41:27.091Z,15.73
2022-10-29T00:44:22.922Z,13.48
2022-10-29T00:46:56.452Z,17.58
2022-10-29T00:49:24.806Z,16.17
2022-10-29T00:51:51.740Z,16.38
2022-10-29T00:54:18.972Z,24.05
2022-10-29T00:56:51.799Z,25.10
2022-10-29T00:59:18.610Z,19.23
2022-10-29T01:01:48.406Z,25.80
2022-10-29T01:04:17.034Z,22.60
2022-10-29T01:06:44.134Z,16.83
2022-10-29T01:09:10.939Z,17.40
2022-10-29T01:12:20.837Z,15.93
2022-10-29T01:14:50.281Z,15.63
2022-10-29T01:17:28.221Z,14.60
2022-10-29T01:20:06.706Z,21.70
2022-10-29T01:22:45.927Z,14.10
2022-10-29T01:25:36.151Z,22.25
2022-10-29T01:28:39.569Z,20.35
2022-10-29T01:31:27.710Z,20.90
2022-10-29T01:34:21.815Z,21.67
2022-10-29T01:36:53.506Z,25.77
2022-10-29T01:39:29.115Z,18.33
2022-10-29T01:42:18.573Z,16.70
2022-10-29T01:45:09.365Z,18.60
2022-10-29T01:47:44.554Z,19.73
2022-10-29T01:50:16.026Z,21.17
2022-10-29T01:52:43.708Z,22.53
2022-10-29T01:55:10.483Z,17.83
2022-10-29T01:57:39.134Z,22.35
2022-10-29T02:00:14.595Z,20.33
2022-10-29T02:03:18.632Z,20.77
2022-10-29T02:05:58.896Z,23.45
2022-10-29T02:08:47.066Z,30.63
2022-10-29T02:11:27.684Z,16.58
2022-10-29T02:14:03.977Z,23.25
2022-10-29T02:16:31.747Z,12.80
2022-10-29T02:18:59.560Z,16.40
2022-10-29T02:21:26.475Z,15.57
2022-10-29T02:23:53.299Z,15.73
2022-10-29T02:26:19.998Z,15.75
2022-10-29T02:28:46.655Z,17.45
2022-10-29T02:31:13.295Z,11.30
2022-10-29T02:33:40.039Z,13.32
2022-10-29T02:36:07.124Z,11.63
2022-10-29T02:38:33.775Z,14.75
2022-10-29T02:41:00.392Z,15.13
2022-10-29T02:43:26.999Z,13.30
2022-10-29T02:46:12.022Z,13.18
2022-10-29T02:48:38.855Z,15.40
2022-10-29T02:51:05.587Z,19.27
2022-10-29T02:53:32.220Z,15.23
2022-10-29T02:55:59.003Z,11.75
2022-10-29T02:58:25.611Z,14.52
2022-10-29T03:00:53.206Z,14.80
2022-10-29T03:03:19.812Z,11.48
2022-10-29T03:05:49.019Z,10.40
2022-10-29T03:08:16.072Z,10.38
2022-10-29T03:10:42.779Z,16.45
2022-10-29T03:13:09.678Z,12.77
2022-10-29T03:15:36.892Z,12.80
2022-10-29T03:18:04.674Z,11.02
2022-10-29T03:20:31.301Z,14.63
2022-10-29T03:22:57.897Z,13.35
2022-10-29T03:25:24.468Z,11.25
2022-10-29T03:27:51.083Z,22.48
2022-10-29T03:30:17.966Z,12.90
2022-10-29T03:32:46.338Z,20.30
2022-10-29T03:35:14.712Z,10.82
2022-10-29T03:37:41.844Z,18.98
2022-10-29T03:40:09.472Z,12.02
2022-10-29T03:42:37.636Z,20.42
2022-10-29T03:45:04.390Z,21.30
2022-10-29T03:47:33.127Z,17.10
2022-10-29T03:49:59.674Z,17.38
2022-10-29T03:52:26.258Z,13.15
2022-10-29T03:54:52.840Z,34.67
2022-10-29T03:57:19.782Z,17.23
2022-10-29T03:59:49.893Z,18.80
2022-10-29T04:02:19.162Z,23.35
2022-10-29T04:04:46.007Z,19.80
2022-10-29T04:07:12.650Z,24.42
2022-10-29T04:09:39.306Z,25.40
2022-10-29T04:12:06.521Z,27.25
2022-10-29T04:14:33.159Z,24.35
2022-10-29T04:16:59.987Z,26.27
2022-10-29T04:19:26.953Z,20.00
2022-10-29T04:32:40.929Z,25.58
2022-10-29T04:35:07.968Z,37.15
2022-10-29T04:37:34.556Z,28.23
2022-10-29T04:40:01.112Z,22.05
2022-10-29T04:42:27.667Z,20.08
2022-10-29T04:44:55.593Z,25.25
2022-10-29T04:47:22.219Z,24.40
2022-10-29T04:49:48.839Z,34.22
2022-10-29T04:52:15.540Z,21.85
2022-10-29T04:54:42.209Z,21.35
2022-10-29T04:57:09.014Z,21.60
2022-10-29T04:59:35.548Z,16.85
2022-10-29T05:02:02.135Z,18.20
2022-10-29T05:04:29.556Z,19.60
2022-10-29T05:06:56.129Z,25.48
2022-10-29T05:09:24.792Z,26.40
2022-10-29T05:11:51.395Z,22.83
2022-10-29T05:14:17.978Z,19.85
2022-10-29T05:16:45.017Z,28.52
2022-10-29T05:19:11.615Z,22.45
2022-10-29T05:21:38.188Z,18.65
2022-10-29T05:24:04.908Z,15.48
2022-10-29T05:26:34.973Z,24.67
2022-10-29T05:29:01.666Z,22.02
2022-10-29T05:31:28.266Z,31.40
2022-10-29T05:33:55.995Z,28.52
2022-10-29T05:36:22.985Z,29.27
2022-10-29T05:38:49.646Z,24.90
2022-10-29T05:41:17.085Z,31.23
2022-10-29T05:43:43.721Z,32.40
2022-10-29T05:46:10.332Z,25.42
2022-10-29T05:48:36.876Z,20.23
2022-10-29T05:51:04.480Z,26.58
2022-10-29T05:53:31.052Z,22.75
2022-10-29T05:55:59.459Z,25.77
2022-10-29T05:58:26.121Z,25.85
2022-10-29T06:00:52.667Z,19.65
2022-10-29T06:03:21.534Z,38.67
2022-10-29T06:05:49.640Z,30.02
2022-10-29T06:08:17.170Z,24.75
2022-10-29T06:10:43.852Z,29.15
2022-10-29T06:13:16.483Z,30.08
2022-10-29T06:15:43.117Z,24.23
2022-10-29T06:18:09.761Z,26.20
2022-10-29T06:20:37.757Z,27.48
2022-10-29T06:23:04.849Z,29.25
2022-10-29T06:25:32.119Z,30.75
2022-10-29T06:28:03.852Z,25.17
2022-10-29T06:30:31.851Z,24.90
2022-10-29T06:32:59.174Z,24.00
2022-10-29T06:35:26.523Z,25.33
2022-10-29T06:37:53.283Z,20.63
2022-10-29T06:40:20.369Z,25.48
2022-10-29T06:42:46.928Z,26.30
2022-10-29T06:45:13.924Z,19.00
2022-10-29T06:47:45.155Z,18.75
2022-10-29T06:50:13.513Z,23.67
2022-10-29T06:52:40.119Z,25.00
2022-10-29T06:55:07.921Z,20.98
2022-10-29T06:57:34.983Z,22.00
2022-10-29T07:00:05.661Z,19.48
2022-10-29T07:02:35.479Z,9.23
2022-10-29T07:05:02.180Z,10.65
2022-10-29T07:07:29.291Z,15.60
2022-10-29T07:09:55.869Z,13.27
2022-10-29T07:12:22.417Z,14.32
2022-10-29T07:14:49.090Z,13.82
2022-10-29T07:17:15.685Z,12.70
2022-10-29T07:19:42.293Z,14.82
2022-10-29T07:22:08.866Z,14.68
2022-10-29T07:24:35.414Z,17.77
2022-10-29T07:27:02.152Z,12.50
2022-10-29T07:29:28.919Z,14.55
2022-10-29T07:31:55.534Z,20.30
2022-10-29T07:34:22.105Z,10.68
2022-10-29T07:36:48.708Z,14.85
2022-10-29T07:39:15.335Z,13.55
2022-10-29T07:41:41.871Z,19.25
2022-10-29T07:44:08.571Z,14.30
2022-10-29T07:46:35.152Z,9.57
2022-10-29T07:49:01.891Z,18.70
2022-10-29T07:51:28.548Z,11.38
2022-10-29T07:53:55.109Z,16.38
2022-10-29T07:56:21.710Z,16.65
2022-10-29T07:58:48.299Z,14.80
2022-10-29T08:01:15.006Z,9.95
2022-10-29T08:03:41.747Z,18.23
2022-10-29T08:06:08.321Z,16.17
2022-10-29T08:08:34.965Z,18.25
2022-10-29T08:11:02.725Z,11.25
2022-10-29T08:13:29.808Z,14.05
2022-10-29T08:15:56.709Z,15.13
2022-10-29T08:18:23.274Z,14.23
2022-10-29T08:20:49.825Z,22.15
2022-10-29T08:23:16.885Z,12.50
2022-10-29T08:25:44.491Z,13.80
2022-10-29T08:28:13.268Z,23.95
2022-10-29T08:30:40.872Z,13.55
2022-10-29T08:33:07.679Z,17.77
2022-10-29T08:35:34.492Z,20.05
2022-10-29T08:38:01.165Z,22.27
2022-10-29T08:40:46.497Z,17.95
2022-10-29T08:43:33.114Z,16.88
2022-10-29T08:45:59.733Z,24.15
2022-10-29T08:48:48.014Z,22.55
2022-10-29T08:51:22.313Z,18.10
2022-10-29T08:54:17.299Z,17.77
2022-10-29T08:56:48.462Z,16.00
2022-10-29T08:59:21.855Z,22.35
2022-10-29T09:01:49.230Z,13.70
2022-10-29T09:04:22.583Z,19.65
2022-10-29T09:07:19.899Z,16.50
2022-10-29T09:09:46.392Z,18.35
2022-10-29T09:12:55.125Z,13.18
2022-10-29T09:15:26.003Z,14.60
2022-10-29T09:18:30.120Z,14.05
2022-10-29T09:21:14.008Z,13.60
2022-10-29T09:23:54.055Z,13.30
2022-10-29T09:26:40.781Z,15.32
2022-10-29T09:29:25.057Z,9.30
2022-10-29T09:31:56.629Z,17.40
2022-10-29T09:34:36.696Z,12.85
2022-10-29T09:37:13.463Z,14.65
2022-10-29T09:39:42.150Z,13.38
2022-10-29T09:42:12.230Z,18.48
2022-10-29T09:44:48.160Z,14.48
2022-10-29T09:47:45.167Z,7.53
2022-10-29T09:50:23.930Z,12.88
2022-10-29T09:52:50.650Z,10.70
2022-10-29T09:55:38.605Z,9.98
2022-10-29T09:58:06.720Z,10.85
2022-10-29T10:00:34.333Z,7.95
2022-10-29T10:03:13.936Z,18.02
2022-10-29T10:06:07.665Z,6.57
2022-10-29T10:08:35.690Z,9.82
2022-10-29T10:11:16.251Z,10.60
2022-10-29T10:13:57.816Z,14.75
2022-10-29T10:16:27.598Z,8.10
2022-10-29T10:18:54.419Z,8.43
2022-10-29T10:21:25.467Z,8.77
2022-10-29T10:23:54.196Z,10.30
2022-10-29T10:26:43.502Z,30.38
2022-10-29T10:29:19.242Z,14.68
2022-10-29T10:31:47.888Z,5.55
2022-10-29T10:34:19.259Z,4.65
2022-10-29T10:37:02.116Z,3.53
2022-10-29T10:39:31.562Z,3.53
2022-10-29T10:42:05.356Z,4.68
2022-10-29T10:44:33.025Z,8.00
2022-10-29T10:47:06.747Z,6.38
2022-10-29T10:49:36.452Z,9.05
2022-10-29T10:52:16.240Z,3.15
2022-10-29T10:55:00.639Z,4.60
2022-10-29T10:57:32.575Z,7.97
2022-10-29T11:03:00.087Z,8.05
2022-10-29T11:05:35.619Z,13.57
2022-10-29T11:08:19.733Z,6.93
2022-10-29T11:10:54.627Z,7.45
2022-10-29T11:13:23.415Z,8.05
2022-10-29T11:15:58.528Z,9.30
2022-10-29T11:18:38.085Z,6.50
2022-10-29T11:21:19.451Z,7.28
2022-10-29T11:24:19.772Z,12.38
2022-10-29T11:26:55.734Z,5.75
2022-10-29T11:29:29.379Z,8.02
2022-10-29T11:32:13.821Z,6.22
2022-10-29T11:34:47.695Z,4.13
2022-10-29T11:37:27.667Z,3.72
2022-10-29T11:39:57.335Z,10.27
2022-10-29T11:42:24.911Z,15.48
2022-10-29T11:44:51.923Z,9.02
2022-10-29T11:47:31.949Z,7.72
2022-10-29T11:50:04.592Z,7.22
2022-10-29T11:52:39.789Z,5.00
2022-10-29T11:55:38.213Z,5.47
2022-10-29T11:58:11.611Z,5.68
2022-10-29T12:00:58.460Z,5.32
2022-10-29T12:03:39.531Z,6.90
2022-10-29T12:06:16.745Z,5.68
2022-10-29T12:08:55.382Z,6.68
2022-10-29T12:11:43.306Z,12.32
2022-10-29T12:14:20.841Z,5.72
2022-10-29T12:16:50.220Z,6.43
2022-10-29T12:19:31.441Z,5.13
2022-10-29T12:22:18.080Z,5.43
2022-10-29T12:25:21.038Z,7.75
2022-10-29T12:27:56.580Z,8.10
2022-10-29T12:30:24.529Z,4.28
2022-10-29T12:33:19.915Z,6.93
2022-10-29T12:35:49.480Z,4.30
2022-10-29T12:38:25.896Z,5.28
2022-10-29T12:41:02.853Z,7.95
2022-10-29T12:43:31.727Z,5.95
2022-10-29T12:46:21.550Z,3.88
2022-10-29T12:49:16.365Z,6.55
2022-10-29T12:51:54.486Z,5.65
2022-10-29T12:54:26.871Z,9.05
2022-10-29T12:56:53.961Z,8.70
2022-10-29T12:59:32.468Z,8.25
2022-10-29T13:02:19.026Z,3.40
2022-10-29T13:05:10.684Z,6.55
2022-10-29T13:07:38.795Z,9.18
2022-10-29T13:10:23.649Z,4.07
2022-10-29T13:12:59.347Z,5.35
2022-10-29T13:15:45.285Z,9.55
2022-10-29T13:18:44.941Z,5.05
2022-10-29T13:21:11.628Z,4.53
2022-10-29T13:23:38.368Z,10.25
2022-10-29T13:26:09.137Z,4.20
2022-10-29T13:28:35.640Z,3.63
2022-10-29T13:31:02.120Z,5.57
2022-10-29T13:33:49.342Z,3.88
2022-10-29T13:36:15.877Z,3.53
2022-10-29T13:39:04.923Z,3.47
2022-10-29T13:41:42.958Z,7.50
2022-10-29T13:44:25.174Z,4.50
2022-10-29T13:47:15.043Z,5.97
2022-10-29T13:49:45.203Z,7.82
2022-10-29T13:52:16.858Z,5.03
2022-10-29T13:55:01.946Z,6.03
2022-10-29T13:57:51.895Z,7.13
2022-10-29T14:00:20.909Z,7.43
2022-10-29T14:03:02.290Z,5.95
2022-10-29T14:05:34.045Z,4.10
2022-10-29T14:08:15.541Z,4.68
2022-10-29T14:10:42.038Z,6.57
2022-10-29T14:13:14.329Z,7.88
2022-10-29T14:16:20.420Z,4.63
2022-10-29T14:18:49.129Z,6.22
2022-10-29T14:21:23.995Z,4.45
2022-10-29T14:23:58.030Z,5.57
2022-10-29T14:26:25.621Z,4.28
2022-10-29T14:28:53.118Z,9.23
2022-10-29T14:31:25.316Z,6.38
2022-10-29T14:33:56.385Z,5.00
2022-10-29T14:36:29.883Z,6.87
2022-10-29T14:38:56.544Z,8.05
2022-10-29T14:41:24.894Z,7.03
2022-10-29T14:43:56.225Z,8.43
2022-10-29T14:46:26.663Z,10.05
2022-10-29T14:49:05.185Z,7.53
2022-10-29T14:51:40.412Z,5.35
2022-10-29T14:54:09.217Z,10.77
2022-10-29T14:56:40.304Z,13.40
2022-10-29T14:59:19.333Z,3.65
2022-10-29T15:01:57.039Z,7.28
2022-10-29T15:04:29.730Z,5.75
2022-10-29T15:07:14.721Z,4.63
2022-10-29T15:09:42.639Z,9.32
2022-10-29T15:12:21.031Z,5.65
2022-10-29T15:14:49.801Z,8.95
2022-10-29T15:17:26.181Z,7.75
2022-10-29T15:19:59.778Z,9.77
2022-10-29T15:22:38.142Z,11.23
2022-10-29T15:25:08.680Z,26.42
2022-10-29T15:27:36.414Z,12.10
2022-10-29T15:30:04.455Z,9.40
2022-10-29T15:32:31.629Z,11.00
2022-10-29T15:34:59.792Z,50.53
2022-10-29T15:37:42.231Z,22.77
2022-10-29T15:40:12.548Z,28.17
2022-10-29T15:42:40.226Z,26.20
2022-10-29T15:45:16.346Z,22.60
2022-10-29T15:47:48.363Z,19.15
2022-10-29T15:52:52.346Z,15.93
2022-10-29T15:55:26.226Z,15.07
2022-10-29T15:57:56.376Z,13.35
2022-10-29T16:00:23.976Z,20.88
2022-10-29T16:02:51.407Z,23.85
2022-10-29T16:05:18.891Z,31.67
2022-10-29T16:07:47.301Z,30.98
2022-10-29T16:10:20.331Z,23.95
2022-10-29T16:12:49.452Z,17.23
2022-10-29T16:15:18.862Z,13.43
2022-10-29T16:17:46.397Z,13.88
2022-10-29T16:20:18.319Z,18.23
2022-10-29T16:22:46.720Z,16.85
2022-10-29T16:25:25.496Z,20.95
2022-10-29T16:27:52.880Z,20.63
2022-10-29T16:30:20.979Z,20.20
2022-10-29T16:32:55.916Z,22.90
2022-10-29T16:35:25.633Z,18.35
2022-10-29T16:37:53.529Z,23.20
2022-10-29T16:40:22.329Z,18.67
2022-10-29T16:42:48.959Z,25.48
2022-10-29T16:45:24.843Z,16.30
2022-10-29T16:47:52.317Z,17.30
2022-10-29T16:50:38.829Z,25.23
2022-10-29T16:53:08.292Z,18.77
2022-10-29T16:55:36.949Z,18.73
2022-10-29T16:58:04.199Z,18.80
2022-10-29T17:00:36.377Z,17.15
2022-10-29T17:03:06.849Z,22.33
2022-10-29T17:05:39.860Z,22.02
2022-10-29T17:08:07.004Z,18.10
2022-10-29T17:10:34.550Z,14.65
2022-10-29T17:13:01.283Z,22.95
2022-10-29T17:15:28.365Z,25.42
2022-10-29T17:17:54.927Z,21.20
2022-10-29T17:20:21.631Z,20.13
2022-10-29T17:22:48.217Z,18.30
2022-10-29T17:25:14.860Z,17.33
2022-10-29T17:27:41.958Z,25.67
2022-10-29T17:30:10.827Z,17.75
2022-10-29T17:32:37.531Z,28.38
2022-10-29T17:35:04.524Z,16.70
2022-10-29T17:37:31.462Z,25.90
2022-10-29T17:40:02.965Z,19.35
2022-10-29T17:42:33.732Z,19.23
2022-10-29T17:45:00.289Z,21.73
2022-10-29T17:47:26.972Z,20.25
2022-10-29T17:49:53.715Z,27.05
2022-10-29T17:52:20.352Z,22.10
2022-10-29T17:54:47.058Z,22.92
2022-10-29T17:57:13.708Z,16.02
2022-10-29T17:59:40.437Z,24.95
2022-10-29T18:02:11.076Z,23.80
2022-10-29T18:04:37.937Z,18.70
2022-10-29T18:07:04.510Z,18.70
2022-10-29T18:09:31.186Z,18.65
2022-10-29T18:11:57.938Z,20.95
2022-10-29T18:14:24.727Z,16.35
2022-10-29T18:16:51.473Z,16.10
2022-10-29T18:19:18.198Z,19.23
2022-10-29T18:21:44.997Z,16.20
2022-10-29T18:24:11.647Z,23.17
2022-10-29T18:26:38.344Z,18.17
2022-10-29T18:29:08.488Z,18.30
2022-10-29T18:31:36.466Z,19.33
2022-10-29T18:34:06.591Z,21.52
2022-10-29T18:36:35.722Z,21.65
2022-10-29T18:39:04.047Z,20.63
2022-10-29T18:41:31.248Z,14.15
2022-10-29T18:43:59.114Z,15.43
2022-10-29T18:46:26.294Z,22.42
2022-10-29T18:48:53.151Z,15.05
2022-10-29T18:51:25.739Z,18.13
2022-10-29T18:53:54.536Z,27.27
2022-10-29T18:56:22.713Z,13.70
2022-10-29T18:58:49.773Z,16.08
2022-10-29T19:01:22.806Z,13.65
2022-10-29T19:03:51.693Z,15.00
2022-10-29T19:06:19.852Z,16.27
2022-10-29T19:08:47.327Z,17.08
2022-10-29T19:11:16.907Z,15.48
2022-10-29T19:13:43.920Z,15.57
2022-10-29T19:16:14.071Z,15.23
2022-10-29T19:18:41.522Z,12.35
2022-10-29T19:21:17.325Z,13.30
2022-10-29T19:23:46.352Z,14.52
2022-10-29T19:26:15.135Z,16.10
2022-10-29T19:28:43.194Z,18.45
2022-10-29T19:31:17.850Z,20.63
2022-10-29T19:33:52.380Z,20.05
2022-10-29T19:36:20.034Z,15.75
2022-10-29T19:38:47.273Z,23.33
2022-10-29T19:41:15.325Z,25.02
2022-10-29T19:43:42.127Z,33.80
2022-10-29T19:46:10.308Z,40.97
2022-10-29T19:48:36.949Z,32.65
2022-10-29T19:51:03.927Z,27.52
2022-10-29T19:53:31.411Z,22.60
2022-10-29T19:55:58.501Z,29.70
2022-10-29T19:58:27.703Z,18.33
2022-10-29T20:00:55.355Z,14.77
2022-10-29T20:03:22.073Z,17.17
2022-10-29T20:05:49.549Z,14.95
2022-10-29T20:08:16.588Z,18.33
2022-10-29T20:10:43.656Z,18.02
2022-10-29T20:13:10.408Z,17.83
2022-10-29T20:15:38.780Z,13.90
2022-10-29T20:18:05.719Z,20.35
2022-10-29T20:20:32.383Z,16.77
2022-10-29T20:23:00.316Z,28.23
2022-10-29T20:25:27.843Z,22.65
2022-10-29T20:27:54.508Z,18.38
2022-10-29T20:30:22.016Z,16.98
2022-10-29T20:32:49.178Z,18.95
2022-10-29T20:35:16.979Z,26.90
2022-10-29T20:37:43.649Z,17.80
2022-10-29T20:40:11.160Z,28.05
2022-10-29T20:42:37.776Z,29.88
2022-10-29T20:45:05.129Z,21.85
2022-10-29T20:47:31.700Z,18.88
2022-10-29T20:49:58.448Z,18.13
2022-10-29T20:52:25.090Z,27.83
2022-10-29T20:54:51.649Z,20.73
2022-10-29T20:57:18.222Z,19.20
2022-10-29T20:59:45.386Z,17.48
2022-10-29T21:02:12.573Z,17.98
2022-10-29T21:04:39.405Z,16.50
2022-10-29T21:07:07.767Z,25.73
2022-10-29T21:09:34.620Z,32.65
2022-10-29T21:12:01.208Z,23.58
2022-10-29T21:14:29.606Z,24.65
2022-10-29T21:16:56.353Z,20.40
2022-10-29T21:19:23.086Z,33.17
2022-10-29T21:21:49.685Z,30.30
2022-10-29T21:24:17.826Z,26.73
2022-10-29T21:26:44.414Z,22.15
2022-10-29T21:29:10.992Z,25.83
2022-10-29T21:31:37.777Z,24.08
2022-10-29T21:34:04.378Z,24.95
2022-10-29T21:36:30.930Z,36.95
2022-10-29T21:38:57.554Z,43.28
2022-10-29T21:41:24.108Z,35.88
2022-10-29T21:43:50.935Z,45.75
2022-10-29T21:46:17.561Z,51.78
2022-10-29T21:48:44.125Z,40.25
2022-10-29T21:51:12.093Z,26.50
2022-10-29T21:53:38.625Z,30.88
2022-10-29T21:56:07.923Z,42.20
2022-10-29T21:58:34.761Z,29.45
2022-10-29T22:01:10.344Z,25.20
2022-10-29T22:03:38.716Z,44.25
2022-10-29T22:06:19.756Z,71.00
2022-10-29T22:08:47.660Z,37.83
2022-10-29T22:11:15.420Z,36.25
2022-10-29T22:13:42.005Z,28.73
2022-10-29T22:16:09.853Z,25.65
2022-10-29T22:18:37.696Z,29.40
2022-10-29T22:21:07.410Z,29.48
2022-10-29T22:23:34.185Z,33.70
2022-10-29T22:26:00.859Z,32.60
2022-10-29T22:28:27.575Z,28.35
2022-10-29T22:31:01.678Z,26.23
2022-10-29T22:33:29.052Z,26.27
2022-10-29T22:35:55.825Z,29.52
2022-10-29T22:38:22.420Z,26.42
2022-10-29T22:40:48.984Z,26.08
2022-10-29T22:43:15.689Z,22.05
2022-10-29T22:45:44.221Z,25.77
2022-10-29T22:48:10.753Z,29.33
2022-10-29T22:50:37.344Z,27.50
2022-10-29T22:53:03.947Z,26.15
2022-10-29T22:55:30.560Z,23.42
2022-10-29T22:57:57.126Z,24.80
2022-10-29T23:00:23.790Z,24.20
2022-10-29T23:02:50.428Z,24.27
2022-10-29T23:05:17.041Z,23.67
2022-10-29T23:07:43.594Z,24.92
2022-10-29T23:10:10.236Z,23.33
2022-10-29T23:12:38.318Z,16.20
2022-10-29T23:15:05.978Z,21.48
2022-10-29T23:17:32.648Z,19.45
2022-10-29T23:19:59.361Z,32.92
2022-10-29T23:22:27.641Z,26.92
2022-10-29T23:24:54.451Z,25.30
2022-10-29T23:27:21.057Z,29.42
2022-10-29T23:29:47.658Z,22.60
2022-10-29T23:32:14.224Z,24.40
2022-10-29T23:34:40.801Z,27.27
2022-10-29T23:37:09.912Z,30.02
2022-10-29T23:39:37.079Z,27.58
2022-10-29T23:42:03.867Z,26.85
2022-10-29T23:44:30.490Z,25.20
2022-10-29T23:46:57.068Z,28.70
2022-10-29T23:49:23.707Z,22.45
2022-10-29T23:51:50.313Z,19.80
2022-10-29T23:54:16.886Z,21.85
2022-10-29T23:56:43.486Z,19.85
2022-10-29T23:59:10.084Z,18.98
